createdAt,value
2023-11-07T00:02:04.104Z,100416.00
2023-11-07T00:05:06.387Z,100421.19
2023-11-07T00:08:08.234Z,100420.16
2023-11-07T00:11:10.177Z,100424.47
2023-11-07T00:14:11.900Z,100420.56
2023-11-07T00:17:14.117Z,100420.97
2023-11-07T00:20:15.969Z,100430.78
2023-11-07T00:23:17.739Z,100416.63
2023-11-07T00:26:23.191Z,100409.97
2023-11-07T00:29:26.302Z,100410.34
2023-11-07T00:32:28.357Z,100408.16
2023-11-07T00:35:30.147Z,100414.78
2023-11-07T00:38:32.058Z,100408.78
2023-11-07T00:41:33.881Z,100410.37
2023-11-07T00:49:11.189Z,100409.84
2023-11-07T00:52:13.591Z,100411.72
2023-11-07T00:55:15.375Z,100410.19
2023-11-07T00:58:17.392Z,100424.19
2023-11-07T01:01:19.241Z,100425.09
2023-11-07T01:04:21.162Z,100426.84
2023-11-07T01:07:22.998Z,100411.84
2023-11-07T01:10:24.778Z,100407.34
2023-11-07T01:13:26.611Z,100415.03
2023-11-07T01:16:28.382Z,100413.22
2023-11-07T01:19:30.245Z,100411.47
2023-11-07T01:22:32.390Z,100411.88
2023-11-07T01:25:34.208Z,100409.25
2023-11-07T01:28:38.957Z,100405.44
2023-11-07T01:31:40.862Z,100408.97
2023-11-07T01:34:42.658Z,100411.56
2023-11-07T01:37:44.533Z,100422.94
2023-11-07T01:40:46.348Z,100426.41
2023-11-07T01:43:48.233Z,100420.25
2023-11-07T01:46:50.404Z,100435.78
2023-11-07T01:49:52.927Z,100428.50
2023-11-07T01:52:55.038Z,100440.09
2023-11-07T01:55:58.556Z,100435.72
2023-11-07T01:59:00.696Z,100430.53
2023-11-07T02:02:02.726Z,100418.28
2023-11-07T02:05:06.401Z,100418.28
2023-11-07T02:08:08.158Z,100420.88
2023-11-07T02:11:10.137Z,100428.13
2023-11-07T02:14:31.341Z,100430.25
2023-11-07T02:17:33.368Z,100435.44
2023-11-07T02:20:39.459Z,100442.78
2023-11-07T02:23:41.340Z,100443.63
2023-11-07T02:26:43.883Z,100436.13
2023-11-07T02:29:47.298Z,100445.34
2023-11-07T02:32:49.201Z,100434.41
2023-11-07T02:35:51.037Z,100436.06
2023-11-07T02:38:52.825Z,100441.47
2023-11-07T02:41:54.790Z,100439.41
2023-11-07T02:44:57.543Z,100441.06
2023-11-07T02:47:59.451Z,100431.22
2023-11-07T02:51:01.315Z,100443.81
2023-11-07T02:54:03.691Z,100453.41
2023-11-07T02:57:06.186Z,100448.28
2023-11-07T03:00:11.525Z,100448.75
2023-11-07T03:03:15.633Z,100446.06
2023-11-07T03:06:18.278Z,100458.84
2023-11-07T03:09:21.150Z,100457.72
2023-11-07T03:12:23.832Z,100458.50
2023-11-07T03:15:25.690Z,100458.59
2023-11-07T03:18:28.332Z,100450.72
2023-11-07T03:21:30.144Z,100458.50
2023-11-07T03:24:31.933Z,100460.06
2023-11-07T03:27:33.708Z,100461.78
2023-11-07T03:30:35.466Z,100465.75
2023-11-07T03:33:37.332Z,100477.97
2023-11-07T03:36:39.861Z,100478.31
2023-11-07T03:39:41.608Z,100490.78
2023-11-07T03:42:43.439Z,100489.56
2023-11-07T03:45:45.246Z,100493.69
2023-11-07T03:48:47.156Z,100472.91
2023-11-07T03:51:49.582Z,100472.22
2023-11-07T03:54:51.346Z,100488.94
2023-11-07T03:57:53.158Z,100491.72
2023-11-07T04:00:54.937Z,100487.31
2023-11-07T04:03:56.919Z,100486.09
2023-11-07T04:06:59.512Z,100497.50
2023-11-07T04:10:01.334Z,100495.00
2023-11-07T04:13:06.472Z,100487.94
2023-11-07T04:16:09.424Z,100497.31
2023-11-07T04:19:12.419Z,100505.09
2023-11-07T04:22:14.355Z,100493.44
2023-11-07T04:25:16.584Z,100486.97
2023-11-07T04:28:18.533Z,100493.09
2023-11-07T04:31:20.414Z,100487.69
2023-11-07T04:34:22.168Z,100493.03
2023-11-07T04:37:23.997Z,100499.13
2023-11-07T04:40:26.581Z,100504.59
2023-11-07T04:43:30.900Z,100500.09
2023-11-07T04:46:33.439Z,100509.41
2023-11-07T04:49:35.478Z,100512.22
2023-11-07T04:52:37.742Z,100512.41
2023-11-07T04:55:39.536Z,100521.91
2023-11-07T04:58:56.567Z,100524.75
2023-11-07T05:02:01.186Z,100520.81
2023-11-07T05:05:05.194Z,100516.78
2023-11-07T05:08:07.032Z,100527.47
2023-11-07T05:11:08.774Z,100528.44
2023-11-07T05:14:11.355Z,100530.31
2023-11-07T05:17:13.127Z,100526.88
2023-11-07T05:20:16.504Z,100539.63
2023-11-07T05:23:20.366Z,100540.81
2023-11-07T05:26:24.000Z,100550.72
2023-11-07T05:29:27.077Z,100537.03
2023-11-07T05:32:29.044Z,100544.72
2023-11-07T05:35:31.983Z,100547.16
2023-11-07T05:38:33.821Z,100541.63
2023-11-07T05:41:35.625Z,100538.00
2023-11-07T05:44:38.006Z,100532.50
2023-11-07T05:47:42.299Z,100537.09
2023-11-07T05:50:44.173Z,100547.25
2023-11-07T05:53:46.376Z,100540.09
2023-11-07T05:56:48.241Z,100553.34
2023-11-07T05:59:51.176Z,100551.66
2023-11-07T06:02:54.123Z,100542.66
2023-11-07T06:05:56.140Z,100556.81
2023-11-07T06:08:58.890Z,100566.91
2023-11-07T06:12:00.794Z,100569.69
2023-11-07T06:15:02.918Z,100574.62
2023-11-07T06:18:04.939Z,100570.94
2023-11-07T06:21:06.966Z,100567.09
2023-11-07T06:24:09.163Z,100570.16
2023-11-07T06:27:12.701Z,100570.91
2023-11-07T06:30:17.790Z,100573.53
2023-11-07T06:33:20.793Z,100583.03
2023-11-07T06:36:25.364Z,100587.09
2023-11-07T06:39:28.590Z,100582.53
2023-11-07T06:42:30.512Z,100594.25
2023-11-07T06:45:32.332Z,100598.44
2023-11-07T06:48:34.478Z,100596.81
2023-11-07T06:51:36.605Z,100609.50
2023-11-07T06:54:38.408Z,100616.44
2023-11-07T06:57:41.023Z,100620.91
2023-11-07T07:00:43.711Z,100622.12
2023-11-07T07:03:45.657Z,100627.19
2023-11-07T07:06:47.620Z,100638.59
2023-11-07T07:09:49.380Z,100654.19
2023-11-07T07:12:51.178Z,100651.44
2023-11-07T07:15:52.990Z,100644.22
2023-11-07T07:18:54.866Z,100645.69
2023-11-07T07:21:57.062Z,100634.69
2023-11-07T07:25:06.850Z,100642.12
2023-11-07T07:28:08.828Z,100647.00
2023-11-07T07:31:11.858Z,100651.94
2023-11-07T07:34:13.865Z,100657.87
2023-11-07T07:37:18.363Z,100652.59
2023-11-07T07:40:26.969Z,100653.06
2023-11-07T07:43:29.466Z,100670.44
2023-11-07T07:46:32.899Z,100653.69
2023-11-07T07:49:37.071Z,100656.06
2023-11-07T07:52:39.830Z,100651.41
2023-11-07T07:55:45.250Z,100644.66
2023-11-07T07:58:48.571Z,100646.06
2023-11-07T08:01:56.823Z,100642.25
2023-11-07T08:04:59.988Z,100659.09
2023-11-07T08:08:01.786Z,100661.97
2023-11-07T08:11:05.203Z,100652.69
2023-11-07T08:14:06.971Z,100650.53
2023-11-07T08:17:10.799Z,100643.91
2023-11-07T08:20:16.042Z,100640.97
2023-11-07T08:23:18.209Z,100640.37
2023-11-07T08:26:20.881Z,100654.22
2023-11-07T08:29:22.644Z,100645.47
2023-11-07T08:32:26.802Z,100648.06
2023-11-07T08:35:28.656Z,100662.75
2023-11-07T08:38:30.917Z,100660.25
2023-11-07T08:41:32.822Z,100665.44
2023-11-07T08:44:35.446Z,100636.41
2023-11-07T08:47:37.719Z,100662.16
2023-11-07T08:50:39.487Z,100673.47
2023-11-07T08:53:45.462Z,100656.00
2023-11-07T08:56:53.244Z,100662.06
2023-11-07T08:59:55.062Z,100658.78
2023-11-07T09:02:57.737Z,100653.78
2023-11-07T09:06:00.203Z,100664.84
2023-11-07T09:09:02.335Z,100667.34
2023-11-07T09:12:04.281Z,100670.38
2023-11-07T09:15:07.031Z,100670.25
2023-11-07T09:18:09.167Z,100678.84
2023-11-07T09:21:11.005Z,100687.47
2023-11-07T09:24:12.959Z,100687.63
2023-11-07T09:27:15.267Z,100682.97
2023-11-07T09:30:18.675Z,100685.75
2023-11-07T09:33:20.665Z,100673.12
2023-11-07T09:36:22.566Z,100665.44
2023-11-07T09:39:24.476Z,100669.50
2023-11-07T09:42:30.005Z,100660.13
2023-11-07T09:45:36.282Z,100665.75
2023-11-07T09:48:38.317Z,100658.31
2023-11-07T09:51:43.498Z,100655.62
2023-11-07T09:54:50.155Z,100643.19
2023-11-07T09:58:09.166Z,100650.34
2023-11-07T10:01:17.336Z,100648.97
2023-11-07T10:04:20.903Z,100658.56
2023-11-07T10:07:23.257Z,100645.66
2023-11-07T10:10:25.772Z,100641.50
2023-11-07T10:13:27.580Z,100638.94
2023-11-07T10:16:42.633Z,100642.34
2023-11-07T10:19:44.445Z,100653.41
2023-11-07T10:22:47.346Z,100649.84
2023-11-07T10:25:52.492Z,100647.97
2023-11-07T10:29:18.307Z,100633.91
2023-11-07T10:32:22.114Z,100635.56
2023-11-07T10:35:26.053Z,100628.28
2023-11-07T10:38:30.292Z,100634.13
2023-11-07T10:41:32.357Z,100630.97
2023-11-07T10:44:34.223Z,100637.78
2023-11-07T10:47:37.011Z,100631.09
2023-11-07T10:50:39.508Z,100631.88
2023-11-07T10:53:45.634Z,100621.81
2023-11-07T10:56:49.724Z,100611.38
2023-11-07T10:59:58.464Z,100624.50
2023-11-07T11:03:04.866Z,100622.09
2023-11-07T11:06:07.775Z,100613.66
2023-11-07T11:09:14.290Z,100607.50
2023-11-07T11:12:17.972Z,100603.00
2023-11-07T11:15:20.105Z,100610.00
2023-11-07T11:18:28.471Z,100593.59
2023-11-07T11:21:46.856Z,100596.19
2023-11-07T11:25:16.775Z,100600.09
2023-11-07T11:28:18.697Z,100608.06
2023-11-07T11:31:22.771Z,100605.91
2023-11-07T11:34:26.943Z,100608.88
2023-11-07T11:38:11.741Z,100618.16
2023-11-07T11:41:14.436Z,100602.97
2023-11-07T11:44:16.557Z,100597.41
2023-11-07T11:47:49.981Z,100590.97
2023-11-07T11:51:31.141Z,100594.09
2023-11-07T11:54:33.942Z,100578.94
2023-11-07T11:58:11.495Z,100574.72
2023-11-07T12:01:13.313Z,100555.03
2023-11-07T12:04:38.030Z,100557.59
2023-11-07T12:07:40.733Z,100560.28
2023-11-07T12:10:56.300Z,100564.38
2023-11-07T12:14:02.753Z,100569.34
2023-11-07T12:17:04.666Z,100566.16
2023-11-07T12:20:09.523Z,100570.88
2023-11-07T12:23:16.501Z,100570.81
2023-11-07T12:26:18.749Z,100572.69
2023-11-07T12:29:34.054Z,100545.56
2023-11-07T12:32:36.031Z,100556.31
2023-11-07T12:35:39.162Z,100550.62
2023-11-07T12:38:43.252Z,100531.78
2023-11-07T12:41:46.036Z,100521.53
2023-11-07T12:44:50.948Z,100516.81
2023-11-07T12:48:05.354Z,100528.22
2023-11-07T12:51:09.546Z,100524.44
2023-11-07T12:54:13.429Z,100522.84
2023-11-07T12:57:17.102Z,100533.81
2023-11-07T13:00:19.473Z,100514.31
2023-11-07T13:03:23.566Z,100515.09
2023-11-07T13:06:25.757Z,100513.94
2023-11-07T13:09:33.223Z,100504.66
2023-11-07T13:12:37.087Z,100501.75
2023-11-07T13:15:39.338Z,100493.84
2023-11-07T13:18:48.148Z,100492.97
2023-11-07T13:21:50.308Z,100489.41
2023-11-07T13:24:52.193Z,100479.88
2023-11-07T13:27:54.425Z,100496.47
2023-11-07T13:30:56.772Z,100483.09
2023-11-07T13:33:58.769Z,100472.38
2023-11-07T13:37:01.138Z,100482.91
2023-11-07T13:40:06.996Z,100488.50
2023-11-07T13:43:09.313Z,100473.00
2023-11-07T13:46:11.507Z,100474.16
2023-11-07T13:49:14.970Z,100474.87
2023-11-07T13:52:17.054Z,100473.41
2023-11-07T13:55:18.769Z,100475.88
2023-11-07T13:58:20.588Z,100491.47
2023-11-07T14:01:23.464Z,100507.91
2023-11-07T14:04:25.518Z,100517.78
2023-11-07T14:07:27.470Z,100525.97
2023-11-07T14:10:32.547Z,100522.19
2023-11-07T14:13:34.745Z,100524.47
2023-11-07T14:16:36.603Z,100520.78
2023-11-07T14:19:38.980Z,100505.94
2023-11-07T14:22:42.194Z,100504.22
2023-11-07T14:25:44.765Z,100500.56
2023-11-07T14:28:55.133Z,100515.28
2023-11-07T14:32:03.191Z,100512.03
2023-11-07T14:35:09.533Z,100507.22
2023-11-07T14:38:11.322Z,100521.13
2023-11-07T14:41:13.448Z,100517.88
2023-11-07T14:44:15.329Z,100507.31
2023-11-07T14:47:17.317Z,100495.63
2023-11-07T14:50:19.597Z,100490.78
2023-11-07T14:53:24.532Z,100503.00
2023-11-07T14:56:30.062Z,100515.63
2023-11-07T14:59:31.852Z,100528.22
2023-11-07T15:02:35.931Z,100516.19
2023-11-07T15:05:39.877Z,100512.06
2023-11-07T15:08:42.234Z,100498.72
2023-11-07T15:11:48.319Z,100492.31
2023-11-07T15:14:51.506Z,100509.59
2023-11-07T15:17:53.670Z,100508.75
2023-11-07T15:20:56.248Z,100497.03
2023-11-07T15:23:58.297Z,100508.66
2023-11-07T15:27:00.258Z,100493.31
2023-11-07T15:30:04.352Z,100489.66
2023-11-07T15:33:06.380Z,100492.34
2023-11-07T15:36:08.703Z,100490.53
2023-11-07T15:39:13.626Z,100481.56
2023-11-07T15:42:16.003Z,100479.91
2023-11-07T15:45:19.800Z,100486.72
2023-11-07T15:48:22.531Z,100491.13
2023-11-07T15:51:28.777Z,100489.31
2023-11-07T15:54:30.940Z,100487.78
2023-11-07T15:57:33.052Z,100485.75
2023-11-07T16:00:35.643Z,100483.06
2023-11-07T16:03:37.973Z,100488.34
2023-11-07T16:06:40.212Z,100504.38
2023-11-07T16:09:42.010Z,100512.31
2023-11-07T16:12:43.907Z,100510.47
2023-11-07T16:15:45.855Z,100514.19
2023-11-07T16:18:48.304Z,100513.47
2023-11-07T16:21:50.938Z,100510.97
2023-11-07T16:24:53.172Z,100499.28
2023-11-07T16:27:55.938Z,100498.31
2023-11-07T16:30:59.215Z,100490.38
2023-11-07T16:34:01.266Z,100493.91
2023-11-07T16:37:03.371Z,100489.97
2023-11-07T16:40:13.258Z,100497.38
2023-11-07T16:43:15.565Z,100501.19
2023-11-07T16:46:17.415Z,100487.28
2023-11-07T16:49:19.878Z,100483.66
2023-11-07T16:52:22.190Z,100475.09
2023-11-07T16:55:24.159Z,100483.44
2023-11-07T16:58:26.197Z,100476.44
2023-11-07T17:01:29.967Z,100477.22
2023-11-07T17:04:33.416Z,100469.38
2023-11-07T17:07:35.410Z,100471.47
2023-11-07T17:10:37.160Z,100483.28
2023-11-07T17:13:39.589Z,100471.06
2023-11-07T17:16:41.378Z,100452.22
2023-11-07T17:19:43.300Z,100465.69
2023-11-07T17:22:47.340Z,100459.28
2023-11-07T17:25:49.918Z,100451.25
2023-11-07T17:28:51.820Z,100452.22
2023-11-07T17:31:56.418Z,100437.94
2023-11-07T17:35:04.495Z,100441.59
2023-11-07T17:38:06.424Z,100433.72
2023-11-07T17:41:14.455Z,100439.28
2023-11-07T17:44:16.442Z,100455.16
2023-11-07T17:47:20.320Z,100467.69
2023-11-07T17:50:22.160Z,100473.91
2023-11-07T17:53:24.644Z,100463.28
2023-11-07T17:56:26.628Z,100456.88
2023-11-07T17:59:30.879Z,100455.53
2023-11-07T18:02:32.839Z,100463.56
2023-11-07T18:05:34.713Z,100473.81
2023-11-07T18:08:40.377Z,100477.34
2023-11-07T18:11:46.132Z,100470.09
2023-11-07T18:14:47.948Z,100467.28
2023-11-07T18:17:49.935Z,100471.59
2023-11-07T18:20:53.949Z,100470.66
2023-11-07T18:23:56.059Z,100472.53
2023-11-07T18:26:58.825Z,100473.16
2023-11-07T18:30:00.755Z,100477.72
2023-11-07T18:33:03.063Z,100473.94
2023-11-07T18:36:05.304Z,100472.91
2023-11-07T18:39:09.093Z,100468.28
2023-11-07T18:42:11.675Z,100475.41
2023-11-07T18:45:14.151Z,100475.28
2023-11-07T18:48:16.109Z,100463.41
2023-11-07T18:51:18.327Z,100458.13
2023-11-07T18:54:20.722Z,100458.91
2023-11-07T18:57:24.361Z,100460.63
2023-11-07T19:00:27.688Z,100465.72
2023-11-07T19:03:29.595Z,100463.97
2023-11-07T19:06:33.328Z,100461.31
2023-11-07T19:09:38.238Z,100446.19
2023-11-07T19:12:40.219Z,100444.75
2023-11-07T19:15:42.317Z,100460.63
2023-11-07T19:18:45.502Z,100469.88
2023-11-07T19:21:47.764Z,100480.59
2023-11-07T19:24:49.977Z,100478.78
2023-11-07T19:27:57.044Z,100470.59
2023-11-07T19:31:03.823Z,100463.31
2023-11-07T19:34:06.395Z,100452.78
2023-11-07T19:37:09.617Z,100443.28
2023-11-07T19:40:12.769Z,100436.59
2023-11-07T19:43:16.542Z,100434.34
2023-11-07T19:46:20.862Z,100430.31
2023-11-07T19:49:29.332Z,100421.69
2023-11-07T19:52:32.187Z,100401.44
2023-11-07T19:55:35.245Z,100399.75
2023-11-07T19:58:53.813Z,100406.47
2023-11-07T20:02:04.378Z,100398.53
2023-11-07T20:05:15.736Z,100399.37
2023-11-07T20:08:18.570Z,100399.00
2023-11-07T20:11:21.572Z,100399.19
2023-11-07T20:14:35.619Z,100413.84
2023-11-07T20:17:54.633Z,100424.19
2023-11-07T20:21:02.493Z,100424.78
2023-11-07T20:24:05.438Z,100421.84
2023-11-07T20:30:27.205Z,100410.16
2023-11-07T20:33:45.173Z,100408.16
2023-11-07T20:37:14.185Z,100416.97
2023-11-07T20:40:16.927Z,100423.00
2023-11-07T20:43:20.617Z,100414.94
2023-11-07T20:46:32.872Z,100416.31
2023-11-07T20:49:41.010Z,100417.00
2023-11-07T20:52:44.960Z,100409.81
2023-11-07T20:55:49.566Z,100404.53
2023-11-07T20:58:51.562Z,100403.19
2023-11-07T21:01:54.659Z,100405.81
2023-11-07T21:04:57.809Z,100396.03
2023-11-07T21:07:59.950Z,100407.69
2023-11-07T21:11:01.861Z,100403.69
2023-11-07T21:14:05.398Z,100394.78
2023-11-07T21:17:07.347Z,100393.75
2023-11-07T21:20:11.792Z,100392.09
2023-11-07T21:23:13.830Z,100379.94
2023-11-07T21:26:15.694Z,100357.56
2023-11-07T21:29:18.316Z,100379.00
2023-11-07T21:32:20.620Z,100372.50
2023-11-07T21:35:23.150Z,100372.31
2023-11-07T21:38:26.219Z,100348.97
2023-11-07T21:41:28.108Z,100357.75
2023-11-07T21:44:29.876Z,100355.00
2023-11-07T21:47:31.647Z,100350.50
2023-11-07T21:50:34.436Z,100356.63
2023-11-07T21:53:36.273Z,100359.19
2023-11-07T21:56:38.031Z,100353.75
2023-11-07T21:59:40.046Z,100357.19
2023-11-07T22:02:42.914Z,100365.91
2023-11-07T22:05:46.945Z,100363.31
2023-11-07T22:08:48.738Z,100354.59
2023-11-07T22:11:50.720Z,100355.47
2023-11-07T22:14:52.467Z,100355.66
2023-11-07T22:17:54.223Z,100348.97
2023-11-07T22:20:56.140Z,100343.31
2023-11-07T22:23:58.012Z,100344.84
2023-11-07T22:26:59.812Z,100350.09
2023-11-07T22:30:03.288Z,100343.62
2023-11-07T22:33:05.289Z,100344.16
2023-11-07T22:36:07.594Z,100347.44
2023-11-07T22:39:10.724Z,100338.41
2023-11-07T22:42:15.602Z,100339.38
2023-11-07T22:45:18.617Z,100335.47
2023-11-07T22:48:20.899Z,100334.41
2023-11-07T22:51:22.894Z,100335.75
2023-11-07T22:54:25.048Z,100329.63
2023-11-07T22:57:26.863Z,100327.69
2023-11-07T23:00:29.151Z,100316.31
2023-11-07T23:03:31.916Z,100311.66
2023-11-07T23:06:33.970Z,100302.53
2023-11-07T23:09:37.347Z,100301.69
2023-11-07T23:12:39.192Z,100296.06
2023-11-07T23:15:41.078Z,100293.94
2023-11-07T23:18:45.637Z,100292.88
2023-11-07T23:21:47.974Z,100301.47
2023-11-07T23:24:50.643Z,100302.25
2023-11-07T23:27:52.513Z,100291.41
2023-11-07T23:30:54.273Z,100308.59
2023-11-07T23:33:56.590Z,100301.28
2023-11-07T23:36:58.396Z,100306.09
2023-11-07T23:40:00.563Z,100306.09
2023-11-07T23:43:03.259Z,100302.06
2023-11-07T23:46:05.076Z,100320.06
2023-11-07T23:49:06.870Z,100316.97
2023-11-07T23:52:08.779Z,100309.72
2023-11-07T23:55:10.637Z,100312.59
2023-11-07T23:58:12.452Z,100314.53
